createdAt,value
2019-05-22T00:02:00.928Z,14.27
2019-05-22T00:04:31.965Z,14.25
2019-05-22T00:07:06.001Z,14.27
2019-05-22T00:09:37.185Z,14.25
2019-05-22T00:12:09.363Z,14.20
2019-05-22T00:14:40.574Z,14.18
2019-05-22T00:17:11.614Z,14.14
2019-05-22T00:19:41.194Z,14.11
2019-05-22T00:22:27.331Z,14.09
2019-05-22T00:24:58.826Z,14.06
2019-05-22T00:27:28.845Z,14.09
2019-05-22T00:29:59.157Z,14.13
2019-05-22T00:32:29.058Z,14.09
2019-05-22T00:34:58.757Z,14.05
2019-05-22T00:37:29.350Z,14.01
2019-05-22T00:40:00.236Z,13.95
2019-05-22T00:42:31.700Z,13.92
2019-05-22T00:45:02.802Z,13.92
2019-05-22T00:47:33.882Z,13.94
2019-05-22T00:50:04.831Z,13.91
2019-05-22T00:52:52.201Z,13.88
2019-05-22T00:55:40.030Z,13.82
2019-05-22T00:58:14.908Z,13.75
2019-05-22T01:00:45.969Z,13.72
2019-05-22T01:03:17.435Z,13.65
2019-05-22T01:05:48.479Z,13.59
2019-05-22T01:08:17.899Z,13.55
2019-05-22T01:10:50.917Z,13.48
2019-05-22T01:13:21.993Z,13.44
2019-05-22T01:15:51.875Z,13.41
2019-05-22T01:18:23.533Z,13.39
2019-05-22T01:20:53.402Z,13.37
2019-05-22T01:23:24.397Z,13.35
2019-05-22T01:25:54.129Z,13.29
2019-05-22T01:28:24.580Z,13.27
2019-05-22T01:30:55.670Z,13.26
2019-05-22T01:33:26.635Z,13.27
2019-05-22T01:36:03.485Z,13.24
2019-05-22T01:38:34.748Z,13.26
2019-05-22T01:41:10.494Z,13.25
2019-05-22T01:43:39.977Z,13.26
2019-05-22T01:46:11.741Z,13.28
2019-05-22T01:48:43.058Z,13.25
2019-05-22T01:51:14.084Z,13.24
2019-05-22T01:53:43.957Z,13.21
2019-05-22T01:56:13.869Z,13.22
2019-05-22T01:58:44.941Z,13.24
2019-05-22T02:01:20.014Z,13.31
2019-05-22T02:03:50.990Z,13.23
2019-05-22T02:06:21.875Z,13.20
2019-05-22T02:09:09.149Z,13.18
2019-05-22T02:11:40.117Z,13.14
2019-05-22T02:14:14.257Z,13.11
2019-05-22T02:16:56.309Z,13.09
2019-05-22T02:19:16.691Z,13.09
2019-05-22T02:21:46.110Z,13.01
2019-05-22T02:24:16.036Z,13.05
2019-05-22T02:26:46.072Z,13.05
2019-05-22T02:29:17.303Z,13.00
2019-05-22T02:31:48.168Z,13.00
2019-05-22T02:34:18.104Z,12.97
2019-05-22T02:36:47.802Z,12.97
2019-05-22T02:39:19.748Z,12.96
2019-05-22T02:41:56.700Z,12.94
2019-05-22T02:44:27.091Z,12.99
2019-05-22T02:47:16.728Z,13.02
2019-05-22T02:49:32.304Z,13.04
2019-05-22T02:52:02.219Z,13.01
2019-05-22T02:54:33.245Z,12.99
2019-05-22T02:57:03.760Z,13.10
2019-05-22T02:59:33.658Z,13.04
2019-05-22T03:02:04.139Z,13.06
2019-05-22T03:05:07.467Z,13.02
2019-05-22T03:07:38.175Z,12.94
2019-05-22T03:10:11.100Z,12.91
2019-05-22T03:12:41.031Z,13.03
2019-05-22T03:15:13.137Z,13.00
2019-05-22T03:17:43.635Z,12.97
2019-05-22T03:20:16.728Z,12.90
2019-05-22T03:23:13.256Z,12.83
2019-05-22T03:25:44.184Z,12.83
2019-05-22T03:28:14.009Z,12.81
2019-05-22T03:30:44.985Z,12.79
2019-05-22T03:33:16.392Z,12.79
2019-05-22T03:35:51.073Z,12.78
2019-05-22T03:38:21.540Z,12.77
2019-05-22T03:40:53.278Z,12.77
2019-05-22T03:43:24.985Z,12.77
2019-05-22T03:45:56.549Z,12.75
2019-05-22T03:48:26.572Z,12.77
2019-05-22T03:51:00.824Z,12.73
2019-05-22T03:53:30.745Z,12.79
2019-05-22T03:56:01.011Z,12.72
2019-05-22T03:58:30.596Z,12.67
2019-05-22T04:01:01.475Z,12.63
2019-05-22T04:03:31.762Z,12.61
2019-05-22T04:06:01.322Z,12.60
2019-05-22T04:08:31.007Z,12.52
2019-05-22T04:11:03.492Z,12.47
2019-05-22T04:13:33.466Z,12.43
2019-05-22T04:16:04.906Z,12.42
2019-05-22T04:18:35.874Z,12.43
2019-05-22T04:21:05.415Z,12.49
2019-05-22T04:23:35.504Z,12.53
2019-05-22T04:26:06.392Z,12.48
2019-05-22T04:28:35.883Z,12.50
2019-05-22T04:31:06.438Z,12.49
2019-05-22T04:33:36.236Z,12.49
2019-05-22T04:36:10.074Z,12.50
2019-05-22T04:38:38.074Z,12.54
2019-05-22T04:41:07.974Z,12.54
2019-05-22T04:43:37.316Z,12.57
2019-05-22T04:46:08.452Z,12.59
2019-05-22T04:48:38.218Z,12.62
2019-05-22T04:51:26.137Z,12.60
2019-05-22T04:53:55.685Z,12.64
2019-05-22T04:56:25.650Z,12.68
2019-05-22T04:58:55.439Z,12.74
2019-05-22T05:01:25.590Z,12.86
2019-05-22T05:03:55.206Z,12.97
2019-05-22T05:06:26.348Z,13.00
2019-05-22T05:08:56.640Z,13.05
2019-05-22T05:11:26.472Z,13.16
2019-05-22T05:13:56.569Z,13.22
2019-05-22T05:16:25.986Z,13.28
2019-05-22T05:18:55.388Z,13.34
2019-05-22T05:21:24.887Z,13.37
2019-05-22T05:23:54.482Z,13.39
2019-05-22T05:26:24.992Z,13.44
2019-05-22T05:28:55.478Z,13.54
2019-05-22T05:31:25.818Z,13.61
2019-05-22T05:34:11.960Z,13.67
2019-05-22T05:36:42.661Z,13.80
2019-05-22T05:39:37.898Z,13.94
2019-05-22T05:42:07.339Z,14.10
2019-05-22T05:44:36.867Z,14.26
2019-05-22T05:47:06.868Z,14.32
2019-05-22T05:49:36.365Z,14.49
2019-05-22T05:52:07.326Z,14.69
2019-05-22T05:54:37.841Z,14.89
2019-05-22T05:57:36.870Z,15.10
2019-05-22T06:00:13.561Z,15.29
2019-05-22T06:02:55.550Z,15.32
2019-05-22T06:05:14.338Z,15.40
2019-05-22T06:07:43.819Z,15.50
2019-05-22T06:10:30.419Z,15.67
2019-05-22T06:13:00.585Z,15.86
2019-05-22T06:15:46.877Z,16.06
2019-05-22T06:18:32.687Z,16.13
2019-05-22T06:21:04.521Z,16.23
2019-05-22T06:23:42.317Z,16.39
2019-05-22T06:26:16.837Z,16.74
2019-05-22T06:28:47.126Z,16.91
2019-05-22T06:31:42.672Z,16.91
2019-05-22T06:34:12.165Z,17.10
2019-05-22T06:36:42.386Z,17.32
2019-05-22T06:39:13.204Z,17.37
2019-05-22T06:41:43.049Z,17.51
2019-05-22T06:44:31.028Z,17.66
2019-05-22T06:47:01.614Z,17.75
2019-05-22T06:49:37.562Z,17.84
2019-05-22T06:52:07.492Z,18.02
2019-05-22T06:54:37.932Z,18.21
2019-05-22T06:57:10.304Z,18.46
2019-05-22T06:59:39.994Z,18.66
2019-05-22T07:02:10.376Z,18.86
2019-05-22T07:04:39.878Z,18.90
2019-05-22T07:07:11.769Z,18.94
2019-05-22T07:09:42.166Z,19.11
2019-05-22T07:12:12.918Z,19.29
2019-05-22T07:15:04.565Z,19.43
2019-05-22T07:17:35.022Z,19.58
2019-05-22T07:20:07.184Z,19.73
2019-05-22T07:22:37.075Z,19.82
2019-05-22T07:25:08.679Z,19.91
2019-05-22T07:27:38.564Z,20.04
2019-05-22T07:30:08.923Z,20.15
2019-05-22T07:32:38.951Z,20.22
2019-05-22T07:35:08.543Z,20.31
2019-05-22T07:37:45.768Z,20.45
2019-05-22T07:40:15.185Z,20.64
2019-05-22T07:42:44.786Z,20.76
2019-05-22T07:45:14.086Z,20.90
2019-05-22T07:47:43.481Z,20.97
2019-05-22T07:50:13.387Z,21.08
2019-05-22T07:52:42.745Z,21.15
2019-05-22T07:55:12.144Z,21.14
2019-05-22T07:57:41.555Z,21.05
2019-05-22T08:00:10.918Z,21.19
2019-05-22T08:02:44.621Z,21.26
2019-05-22T08:05:14.943Z,21.32
2019-05-22T08:07:44.882Z,21.47
2019-05-22T08:10:15.863Z,21.64
2019-05-22T08:12:45.399Z,21.88
2019-05-22T08:15:15.304Z,22.08
2019-05-22T08:17:44.625Z,22.26
2019-05-22T08:20:14.183Z,22.47
2019-05-22T08:22:43.977Z,22.50
2019-05-22T08:25:13.391Z,22.68
2019-05-22T08:27:42.702Z,22.97
2019-05-22T08:30:12.341Z,23.19
2019-05-22T08:32:41.733Z,23.46
2019-05-22T08:35:11.857Z,23.73
2019-05-22T08:37:41.870Z,23.88
2019-05-22T08:40:12.748Z,23.84
2019-05-22T08:42:42.208Z,23.64
2019-05-22T08:45:12.316Z,23.50
2019-05-22T08:47:41.792Z,23.58
2019-05-22T08:50:15.648Z,23.56
2019-05-22T08:52:45.180Z,23.49
2019-05-22T08:55:15.073Z,23.53
2019-05-22T08:57:44.931Z,23.49
2019-05-22T09:00:22.298Z,23.44
2019-05-22T09:02:52.202Z,23.52
2019-05-22T09:05:22.149Z,23.62
2019-05-22T09:07:51.603Z,23.67
2019-05-22T09:10:25.763Z,23.62
2019-05-22T09:12:52.685Z,23.58
2019-05-22T09:15:22.300Z,23.45
2019-05-22T09:17:51.758Z,23.35
2019-05-22T09:20:21.655Z,23.33
2019-05-22T09:22:51.465Z,23.38
2019-05-22T09:25:21.748Z,23.08
2019-05-22T09:27:51.165Z,22.90
2019-05-22T09:30:20.639Z,23.10
2019-05-22T09:32:50.034Z,23.23
2019-05-22T09:35:19.684Z,23.44
2019-05-22T09:37:49.174Z,23.54
2019-05-22T09:40:18.502Z,23.69
2019-05-22T09:42:48.408Z,23.77
2019-05-22T09:45:19.453Z,23.84
2019-05-22T09:47:49.055Z,23.96
2019-05-22T09:50:18.663Z,24.13
2019-05-22T09:52:57.745Z,24.29
2019-05-22T09:55:20.370Z,24.35
2019-05-22T09:57:49.994Z,24.58
2019-05-22T10:00:20.016Z,24.78
2019-05-22T10:02:49.881Z,24.92
2019-05-22T10:05:19.475Z,25.05
2019-05-22T10:07:59.305Z,24.86
2019-05-22T10:10:20.142Z,25.64
2019-05-22T10:12:49.533Z,26.22
2019-05-22T10:15:19.034Z,25.94
2019-05-22T10:17:50.146Z,25.67
2019-05-22T10:20:20.567Z,25.73
2019-05-22T10:22:50.315Z,25.93
2019-05-22T10:25:19.909Z,26.37
2019-05-22T10:27:50.208Z,26.99
2019-05-22T10:30:22.730Z,26.87
2019-05-22T10:32:52.194Z,26.27
2019-05-22T10:35:23.962Z,25.97
2019-05-22T10:37:54.235Z,25.79
2019-05-22T10:40:23.556Z,25.80
2019-05-22T10:42:53.096Z,25.48
2019-05-22T10:45:22.345Z,25.07
2019-05-22T10:47:51.739Z,25.09
2019-05-22T10:50:21.542Z,25.03
2019-05-22T10:52:54.410Z,24.97
2019-05-22T10:55:22.680Z,24.87
2019-05-22T10:57:52.803Z,24.69
2019-05-22T11:00:22.974Z,24.91
2019-05-22T11:02:52.224Z,25.12
2019-05-22T11:05:22.127Z,25.45
2019-05-22T11:07:52.501Z,25.32
2019-05-22T11:10:24.914Z,24.97
2019-05-22T11:12:54.638Z,25.01
2019-05-22T11:15:24.461Z,25.03
2019-05-22T11:17:54.917Z,25.05
2019-05-22T11:20:24.729Z,25.28
2019-05-22T11:22:54.727Z,25.43
2019-05-22T11:25:24.414Z,25.46
2019-05-22T11:27:54.602Z,25.32
2019-05-22T11:30:24.018Z,25.05
2019-05-22T11:32:54.159Z,24.65
2019-05-22T11:35:24.022Z,24.72
2019-05-22T11:37:53.649Z,24.77
2019-05-22T11:40:23.739Z,24.68
2019-05-22T11:42:54.025Z,24.45
2019-05-22T11:45:23.845Z,24.68
2019-05-22T11:47:54.216Z,24.88
2019-05-22T11:50:23.820Z,25.62
2019-05-22T11:52:53.178Z,26.03
2019-05-22T11:55:40.743Z,25.97
2019-05-22T11:57:54.815Z,25.94
2019-05-22T12:00:24.858Z,26.38
2019-05-22T12:02:54.945Z,27.22
2019-05-22T12:05:24.742Z,28.02
2019-05-22T12:07:54.511Z,28.34
2019-05-22T12:10:25.508Z,28.48
2019-05-22T12:12:55.308Z,29.12
2019-05-22T12:15:27.745Z,29.48
2019-05-22T12:17:57.399Z,29.10
2019-05-22T12:20:27.771Z,28.73
2019-05-22T12:22:57.815Z,28.22
2019-05-22T12:25:27.952Z,27.89
2019-05-22T12:27:57.936Z,27.81
2019-05-22T12:30:27.318Z,27.73
2019-05-22T12:32:57.587Z,27.62
2019-05-22T12:35:27.780Z,27.48
2019-05-22T12:37:58.896Z,27.81
2019-05-22T12:40:29.922Z,28.13
2019-05-22T12:42:59.556Z,28.40
2019-05-22T12:45:29.865Z,28.52
2019-05-22T12:47:59.919Z,28.04
2019-05-22T12:50:30.104Z,27.45
2019-05-22T12:52:59.517Z,27.15
2019-05-22T12:55:29.376Z,27.11
2019-05-22T12:57:58.765Z,26.95
2019-05-22T13:00:28.759Z,27.07
2019-05-22T13:02:58.920Z,27.22
2019-05-22T13:05:29.218Z,27.25
2019-05-22T13:07:58.636Z,27.02
2019-05-22T13:10:28.911Z,26.87
2019-05-22T13:12:58.513Z,26.78
2019-05-22T13:15:27.919Z,26.71
2019-05-22T13:17:58.121Z,26.56
2019-05-22T13:20:42.581Z,26.19
2019-05-22T13:23:04.890Z,25.97
2019-05-22T13:25:36.443Z,25.64
2019-05-22T13:28:05.919Z,25.38
2019-05-22T13:30:36.302Z,25.14
2019-05-22T13:33:06.161Z,25.25
2019-05-22T13:35:36.051Z,25.35
2019-05-22T13:38:05.495Z,25.25
2019-05-22T13:40:35.920Z,25.25
2019-05-22T13:43:05.404Z,25.26
2019-05-22T13:45:35.164Z,25.05
2019-05-22T13:48:04.570Z,24.55
2019-05-22T13:50:33.914Z,24.39
2019-05-22T13:53:04.841Z,24.36
2019-05-22T13:55:34.368Z,24.25
2019-05-22T13:58:04.064Z,24.13
2019-05-22T14:00:33.764Z,24.03
2019-05-22T14:03:03.153Z,24.03
2019-05-22T14:05:34.044Z,23.88
2019-05-22T14:08:04.058Z,24.20
2019-05-22T14:10:34.076Z,24.36
2019-05-22T14:13:03.483Z,24.41
2019-05-22T14:15:48.971Z,24.52
2019-05-22T14:18:05.545Z,24.54
2019-05-22T14:20:34.964Z,24.78
2019-05-22T14:23:04.405Z,25.08
2019-05-22T14:25:34.614Z,25.06
2019-05-22T14:28:04.831Z,25.06
2019-05-22T14:30:34.297Z,25.19
2019-05-22T14:33:05.143Z,25.35
2019-05-22T14:35:47.491Z,24.97
2019-05-22T14:38:08.292Z,24.96
2019-05-22T14:40:38.231Z,25.15
2019-05-22T14:43:07.860Z,25.47
2019-05-22T14:45:37.834Z,25.70
2019-05-22T14:48:07.158Z,25.85
2019-05-22T14:50:36.667Z,25.79
2019-05-22T14:53:06.123Z,25.76
2019-05-22T14:55:37.123Z,25.73
2019-05-22T14:58:07.030Z,25.65
2019-05-22T15:00:37.930Z,25.30
2019-05-22T15:03:07.554Z,24.92
2019-05-22T15:05:36.970Z,24.97
2019-05-22T15:08:07.246Z,25.12
2019-05-22T15:10:37.528Z,25.50
2019-05-22T15:13:06.936Z,25.73
2019-05-22T15:15:40.341Z,26.04
2019-05-22T15:18:07.611Z,26.40
2019-05-22T15:20:56.988Z,26.89
2019-05-22T15:23:26.961Z,27.20
2019-05-22T15:25:56.705Z,27.47
2019-05-22T15:28:27.112Z,27.61
2019-05-22T15:30:57.073Z,27.50
2019-05-22T15:33:27.244Z,27.19
2019-05-22T15:35:57.003Z,27.08
2019-05-22T15:38:27.017Z,26.78
2019-05-22T15:40:56.432Z,26.72
2019-05-22T15:43:26.661Z,26.55
2019-05-22T15:45:56.138Z,26.29
2019-05-22T15:48:30.542Z,25.99
2019-05-22T15:51:03.244Z,25.72
2019-05-22T15:53:33.650Z,25.39
2019-05-22T15:56:04.546Z,25.00
2019-05-22T15:58:35.435Z,24.50
2019-05-22T16:01:08.202Z,24.45
2019-05-22T16:03:37.781Z,24.29
2019-05-22T16:06:07.666Z,24.08
2019-05-22T16:08:37.953Z,24.03
2019-05-22T16:11:09.061Z,24.18
2019-05-22T16:13:39.384Z,24.36
2019-05-22T16:16:09.599Z,24.42
2019-05-22T16:18:39.101Z,24.38
2019-05-22T16:21:09.566Z,24.28
2019-05-22T16:23:39.181Z,24.19
2019-05-22T16:26:09.891Z,24.28
2019-05-22T16:28:41.174Z,24.24
2019-05-22T16:31:12.553Z,24.02
2019-05-22T16:33:43.538Z,24.04
2019-05-22T16:36:13.484Z,23.83
2019-05-22T16:38:43.960Z,23.79
2019-05-22T16:41:13.638Z,23.67
2019-05-22T16:43:49.644Z,23.60
2019-05-22T16:46:16.901Z,23.32
2019-05-22T16:48:50.823Z,23.35
2019-05-22T16:51:21.727Z,23.14
2019-05-22T16:53:57.436Z,23.24
2019-05-22T16:56:27.958Z,23.12
2019-05-22T16:58:57.527Z,22.80
2019-05-22T17:01:27.248Z,22.61
2019-05-22T17:03:58.722Z,22.56
2019-05-22T17:06:28.382Z,22.39
2019-05-22T17:08:59.278Z,22.37
2019-05-22T17:11:29.007Z,22.31
2019-05-22T17:14:01.768Z,22.13
2019-05-22T17:16:32.515Z,22.01
2019-05-22T17:19:02.993Z,21.84
2019-05-22T17:21:32.531Z,21.68
2019-05-22T17:24:02.638Z,21.71
2019-05-22T17:26:32.226Z,21.57
2019-05-22T17:29:01.696Z,21.37
2019-05-22T17:31:32.346Z,21.33
2019-05-22T17:34:02.304Z,21.18
2019-05-22T17:36:32.387Z,21.18
2019-05-22T17:39:02.379Z,21.09
2019-05-22T17:41:32.570Z,20.91
2019-05-22T17:44:02.363Z,20.92
2019-05-22T17:46:32.937Z,20.92
2019-05-22T17:49:02.425Z,20.80
2019-05-22T17:51:32.523Z,20.71
2019-05-22T17:54:02.028Z,20.59
2019-05-22T17:56:31.444Z,20.53
2019-05-22T17:59:01.096Z,20.46
2019-05-22T18:01:31.024Z,20.32
2019-05-22T18:04:00.498Z,20.32
2019-05-22T18:06:30.185Z,20.14
2019-05-22T18:08:59.703Z,19.98
2019-05-22T18:11:32.178Z,19.85
2019-05-22T18:14:03.806Z,19.77
2019-05-22T18:16:34.260Z,19.70
2019-05-22T18:19:05.522Z,19.59
2019-05-22T18:21:35.811Z,19.55
2019-05-22T18:24:05.433Z,19.47
2019-05-22T18:26:37.202Z,19.32
2019-05-22T18:29:06.961Z,19.16
2019-05-22T18:31:36.553Z,19.15
2019-05-22T18:34:06.027Z,19.00
2019-05-22T18:36:36.013Z,18.92
2019-05-22T18:39:08.780Z,18.82
2019-05-22T18:41:38.257Z,18.72
2019-05-22T18:44:07.772Z,18.75
2019-05-22T18:46:37.545Z,18.65
2019-05-22T18:49:07.040Z,18.61
2019-05-22T18:51:48.559Z,18.49
2019-05-22T18:54:19.126Z,18.38
2019-05-22T18:56:48.785Z,18.32
2019-05-22T18:59:18.288Z,18.23
2019-05-22T19:01:47.759Z,18.15
2019-05-22T19:04:17.258Z,18.09
2019-05-22T19:06:46.768Z,18.04
2019-05-22T19:09:16.384Z,18.01
2019-05-22T19:11:45.866Z,17.99
2019-05-22T19:14:15.783Z,17.93
2019-05-22T19:16:45.322Z,17.88
2019-05-22T19:19:14.809Z,17.82
2019-05-22T19:21:44.405Z,17.88
2019-05-22T19:24:13.881Z,17.86
2019-05-22T19:26:43.460Z,17.82
2019-05-22T19:29:12.961Z,17.76
2019-05-22T19:31:42.558Z,17.70
2019-05-22T19:34:12.454Z,17.63
2019-05-22T19:36:41.991Z,17.61
2019-05-22T19:39:11.492Z,17.56
2019-05-22T19:41:40.961Z,17.54
2019-05-22T19:44:10.460Z,17.50
2019-05-22T19:46:40.040Z,17.46
2019-05-22T19:49:10.409Z,17.43
2019-05-22T19:51:40.881Z,17.39
2019-05-22T19:54:10.562Z,17.37
2019-05-22T19:56:40.755Z,17.31
2019-05-22T19:59:10.566Z,17.32
2019-05-22T20:01:40.130Z,17.28
2019-05-22T20:04:10.232Z,17.23
2019-05-22T20:06:40.346Z,17.27
2019-05-22T20:09:11.901Z,17.24
2019-05-22T20:11:41.987Z,17.17
2019-05-22T20:14:11.891Z,17.14
2019-05-22T20:16:41.370Z,17.13
2019-05-22T20:19:10.919Z,17.14
2019-05-22T20:21:40.669Z,17.11
2019-05-22T20:24:10.343Z,17.02
2019-05-22T20:26:39.813Z,16.99
2019-05-22T20:29:09.759Z,16.97
2019-05-22T20:31:39.218Z,16.96
2019-05-22T20:34:08.993Z,16.91
2019-05-22T20:36:39.889Z,16.85
2019-05-22T20:39:10.923Z,16.83
2019-05-22T20:41:40.415Z,16.78
2019-05-22T20:44:11.087Z,16.66
2019-05-22T20:46:41.594Z,16.59
2019-05-22T20:49:12.672Z,16.55
2019-05-22T20:51:42.788Z,16.56
2019-05-22T20:54:13.007Z,16.46
2019-05-22T20:56:44.536Z,16.38
2019-05-22T20:59:14.439Z,16.35
2019-05-22T21:01:43.997Z,16.28
2019-05-22T21:04:13.761Z,16.30
2019-05-22T21:06:51.087Z,16.37
2019-05-22T21:09:20.567Z,16.37
2019-05-22T21:11:50.519Z,16.35
2019-05-22T21:14:20.630Z,16.30
2019-05-22T21:16:50.334Z,16.20
2019-05-22T21:19:23.435Z,16.15
2019-05-22T21:21:52.667Z,16.14
2019-05-22T21:24:22.183Z,16.09
2019-05-22T21:26:51.681Z,16.10
2019-05-22T21:29:21.400Z,16.10
2019-05-22T21:31:50.875Z,16.04
2019-05-22T21:34:20.303Z,15.99
2019-05-22T21:36:49.703Z,15.98
2019-05-22T21:39:20.179Z,15.90
2019-05-22T21:41:49.804Z,15.83
2019-05-22T21:44:19.270Z,15.74
2019-05-22T21:46:48.745Z,15.63
2019-05-22T21:49:19.380Z,15.55
2019-05-22T21:51:49.215Z,15.47
2019-05-22T21:54:19.195Z,15.40
2019-05-22T21:56:49.299Z,15.30
2019-05-22T21:59:18.815Z,15.20
2019-05-22T22:01:55.906Z,15.13
2019-05-22T22:04:26.993Z,15.11
2019-05-22T22:06:56.533Z,15.06
2019-05-22T22:09:27.507Z,15.02
2019-05-22T22:11:57.188Z,15.01
2019-05-22T22:14:26.888Z,14.95
2019-05-22T22:16:56.470Z,14.93
2019-05-22T22:19:26.352Z,14.97
2019-05-22T22:21:56.260Z,14.91
2019-05-22T22:24:26.469Z,14.89
2019-05-22T22:26:56.917Z,14.81
2019-05-22T22:29:27.892Z,14.81
2019-05-22T22:31:59.069Z,14.75
2019-05-22T22:34:42.733Z,14.71
2019-05-22T22:37:13.330Z,14.63
2019-05-22T22:39:44.478Z,14.56
2019-05-22T22:42:15.599Z,14.52
2019-05-22T22:44:47.324Z,14.47
2019-05-22T22:47:18.369Z,14.45
2019-05-22T22:49:49.218Z,14.41
2019-05-22T22:52:19.636Z,14.42
2019-05-22T22:54:49.533Z,14.45
2019-05-22T22:57:19.133Z,14.37
2019-05-22T22:59:48.585Z,14.29
2019-05-22T23:02:18.166Z,14.24
2019-05-22T23:04:47.765Z,14.23
2019-05-22T23:07:17.558Z,14.24
2019-05-22T23:09:48.620Z,14.25
2019-05-22T23:12:19.854Z,14.23
2019-05-22T23:14:52.496Z,14.31
2019-05-22T23:17:22.374Z,14.30
2019-05-22T23:19:50.406Z,14.19
2019-05-22T23:22:19.734Z,14.18
2019-05-22T23:24:49.631Z,14.30
2019-05-22T23:27:19.542Z,14.28
2019-05-22T23:29:49.236Z,14.22
2019-05-22T23:32:18.702Z,14.18
2019-05-22T23:34:48.215Z,14.17
2019-05-22T23:37:19.092Z,14.12
2019-05-22T23:39:48.582Z,14.07
2019-05-22T23:42:19.071Z,14.09
2019-05-22T23:44:49.651Z,14.13
2019-05-22T23:47:19.521Z,14.10
2019-05-22T23:49:50.645Z,14.15
2019-05-22T23:52:20.126Z,14.21
2019-05-22T23:54:51.608Z,14.21
2019-05-22T23:57:22.790Z,14.20
2019-05-22T23:59:53.953Z,14.22
